KFDY

Findlay Airport

Findlay, Ohio, USA
METAR KFDY 231053Z AUTO 36004KT 4SM BR CLR 14/13 A3013 RMK AO2 SLP195 T01390128
Observed Flight Rules
May-23 @ 10:53 UTC (20 minutes ago) Marginal Visual Flight Rules
Wind Visibility Clouds Conditions
360° at 4 knots 4 miles
  • Clear skies
  • Mist
Temperatures Readings
Current 14°C / 57°F
Dewpoint 13°C / 55°F
Humidity 94%
Altimeter 30.13" Hg
Pressure 1019.5 hPa
Elevation 247
METAR KFDY 231053Z AUTO 36004KT 4SM BR CLR 14/13 A3013 RMK AO2 SLP195 T01390128
Observed Flight Rules
May-23 @ 10:53 UTC
(20 minutes ago)
MVFR
Wind Visibility
360° at 4 knots 4 miles
Clouds
  • Clear skies
Conditions
  • Mist
Temperature Dewpoint
14°C / 57°F 13°C / 55°F
Humidity Altimeter Pressure
94% 30.13" Hg 1019.5 hPa